sensor_id;sensor_type;location;lat;lon;timestamp;pressure;altitude;pressure_sealevel;temperature;humidity
57086;BME280;42964;42.910;23.792;2023-07-02T00:01:12;96895.09;;;17.55;99.20
57086;BME280;42964;42.910;23.792;2023-07-02T00:06:11;96899.34;;;17.58;99.68
57086;BME280;42964;42.910;23.792;2023-07-02T00:11:10;96891.06;;;17.47;100.00
57086;BME280;42964;42.910;23.792;2023-07-02T00:16:11;96906.91;;;17.45;100.00
57086;BME280;42964;42.910;23.792;2023-07-02T00:21:10;96883.59;;;17.38;100.00
57086;BME280;42964;42.910;23.792;2023-07-02T00:26:12;96904.50;;;17.39;100.00
57086;BME280;42964;42.910;23.792;2023-07-02T00:31:10;96899.31;;;17.38;100.00
57086;BME280;42964;42.910;23.792;2023-07-02T00:36:09;96888.06;;;17.35;100.00
57086;BME280;42964;42.910;23.792;2023-07-02T00:41:13;96882.56;;;17.42;100.00
57086;BME280;42964;42.910;23.792;2023-07-02T00:46:16;96891.16;;;17.45;100.00
57086;BME280;42964;42.910;23.792;2023-07-02T00:51:26;96884.97;;;17.46;100.00
57086;BME280;42964;42.910;23.792;2023-07-02T00:56:26;96860.13;;;17.34;100.00
57086;BME280;42964;42.910;23.792;2023-07-02T01:01:26;96879.97;;;17.40;100.00
57086;BME280;42964;42.910;23.792;2023-07-02T01:06:33;96851.16;;;16.98;100.00
57086;BME280;42964;42.910;23.792;2023-07-02T01:16:34;96885.94;;;17.23;100.00
57086;BME280;42964;42.910;23.792;2023-07-02T01:21:34;96888.56;;;17.03;100.00
57086;BME280;42964;42.910;23.792;2023-07-02T01:26:33;96838.00;;;16.77;100.00
57086;BME280;42964;42.910;23.792;2023-07-02T01:31:32;96914.00;;;17.21;100.00
57086;BME280;42964;42.910;23.792;2023-07-02T01:36:33;96911.00;;;17.30;100.00
57086;BME280;42964;42.910;23.792;2023-07-02T01:41:41;96897.97;;;17.29;99.63
57086;BME280;42964;42.910;23.792;2023-07-02T01:46:40;96898.81;;;17.29;99.78
57086;BME280;42964;42.910;23.792;2023-07-02T01:51:39;96897.09;;;17.28;99.46
57086;BME280;42964;42.910;23.792;2023-07-02T01:56:38;96888.31;;;17.29;99.38
57086;BME280;42964;42.910;23.792;2023-07-02T02:01:38;96882.16;;;17.30;99.51
57086;BME280;42964;42.910;23.792;2023-07-02T02:06:40;96878.69;;;17.30;99.51
57086;BME280;42964;42.910;23.792;2023-07-02T02:11:43;96866.59;;;17.26;99.36
57086;BME280;42964;42.910;23.792;2023-07-02T02:16:43;96863.94;;;17.27;100.00
57086;BME280;42964;42.910;23.792;2023-07-02T02:21:45;96857.00;;;17.26;100.00
57086;BME280;42964;42.910;23.792;2023-07-02T02:26:44;96854.66;;;17.19;100.00
57086;BME280;42964;42.910;23.792;2023-07-02T02:31:43;96850.03;;;17.25;100.00
57086;BME280;42964;42.910;23.792;2023-07-02T02:36:42;96861.25;;;17.29;100.00
57086;BME280;42964;42.910;23.792;2023-07-02T02:41:42;96848.06;;;17.30;100.00
57086;BME280;42964;42.910;23.792;2023-07-02T02:46:41;96864.38;;;17.37;100.00
57086;BME280;42964;42.910;23.792;2023-07-02T02:51:40;96868.94;;;17.33;100.00
57086;BME280;42964;42.910;23.792;2023-07-02T02:56:39;96851.66;;;17.48;100.00
57086;BME280;42964;42.910;23.792;2023-07-02T03:01:38;96846.16;;;17.54;100.00
57086;BME280;42964;42.910;23.792;2023-07-02T03:06:37;96836.66;;;17.52;100.00
57086;BME280;42964;42.910;23.792;2023-07-02T03:11:36;96867.91;;;17.56;99.75
57086;BME280;42964;42.910;23.792;2023-07-02T03:16:35;96847.72;;;17.59;100.00
57086;BME280;42964;42.910;23.792;2023-07-02T03:21:34;96855.72;;;17.55;99.29
57086;BME280;42964;42.910;23.792;2023-07-02T03:26:33;96858.50;;;17.52;99.77
57086;BME280;42964;42.910;23.792;2023-07-02T03:31:32;96863.66;;;17.54;100.00
57086;BME280;42964;42.910;23.792;2023-07-02T03:36:31;96868.00;;;17.55;100.00
57086;BME280;42964;42.910;23.792;2023-07-02T03:41:30;96843.84;;;17.06;100.00
57086;BME280;42964;42.910;23.792;2023-07-02T03:46:29;96882.41;;;17.24;100.00
57086;BME280;42964;42.910;23.792;2023-07-02T03:51:30;96885.50;;;17.34;100.00
57086;BME280;42964;42.910;23.792;2023-07-02T03:56:29;96869.09;;;17.49;100.00
57086;BME280;42964;42.910;23.792;2023-07-02T04:01:28;96892.34;;;17.38;100.00
57086;BME280;42964;42.910;23.792;2023-07-02T04:06:27;96899.28;;;17.39;99.76
57086;BME280;42964;42.910;23.792;2023-07-02T04:11:26;96885.13;;;17.64;99.60
57086;BME280;42964;42.910;23.792;2023-07-02T04:16:25;96886.25;;;17.79;98.37
57086;BME280;42964;42.910;23.792;2023-07-02T04:21:24;96894.94;;;17.59;98.73
57086;BME280;42964;42.910;23.792;2023-07-02T04:26:23;96903.22;;;17.70;97.77
57086;BME280;42964;42.910;23.792;2023-07-02T04:31:25;96907.28;;;17.97;96.41
57086;BME280;42964;42.910;23.792;2023-07-02T04:36:24;96919.66;;;18.14;94.81
57086;BME280;42964;42.910;23.792;2023-07-02T04:41:23;96921.66;;;18.28;94.33
57086;BME280;42964;42.910;23.792;2023-07-02T04:46:22;96924.03;;;18.53;94.66
57086;BME280;42964;42.910;23.792;2023-07-02T04:51:21;96918.16;;;18.86;93.82
57086;BME280;42964;42.910;23.792;2023-07-02T04:56:20;96917.50;;;19.17;93.15
57086;BME280;42964;42.910;23.792;2023-07-02T05:01:19;96928.69;;;19.40;92.95
57086;BME280;42964;42.910;23.792;2023-07-02T05:06:19;96926.34;;;19.70;92.26
57086;BME280;42964;42.910;23.792;2023-07-02T05:11:18;96905.59;;;19.81;91.27
57086;BME280;42964;42.910;23.792;2023-07-02T05:16:16;96931.28;;;19.94;90.24
57086;BME280;42964;42.910;23.792;2023-07-02T05:21:19;96936.19;;;20.00;88.72
57086;BME280;42964;42.910;23.792;2023-07-02T05:26:18;96943.63;;;20.09;88.25
57086;BME280;42964;42.910;23.792;2023-07-02T05:31:17;96947.84;;;19.96;88.17
57086;BME280;42964;42.910;23.792;2023-07-02T05:36:16;96944.69;;;20.22;88.46
57086;BME280;42964;42.910;23.792;2023-07-02T05:41:18;96948.00;;;20.43;88.17
57086;BME280;42964;42.910;23.792;2023-07-02T05:46:17;96949.91;;;20.73;85.66
57086;BME280;42964;42.910;23.792;2023-07-02T05:51:23;96922.28;;;20.80;84.52
57086;BME280;42964;42.910;23.792;2023-07-02T05:56:22;96938.25;;;20.93;82.44
57086;BME280;42964;42.910;23.792;2023-07-02T06:01:21;96950.09;;;21.02;76.29
57086;BME280;42964;42.910;23.792;2023-07-02T06:06:23;96942.50;;;21.11;75.29
57086;BME280;42964;42.910;23.792;2023-07-02T06:11:23;96946.69;;;21.16;74.06
57086;BME280;42964;42.910;23.792;2023-07-02T06:16:22;96947.00;;;21.41;70.39
57086;BME280;42964;42.910;23.792;2023-07-02T06:21:21;96941.59;;;21.59;66.18
57086;BME280;42964;42.910;23.792;2023-07-02T06:26:19;96927.13;;;21.80;64.98
57086;BME280;42964;42.910;23.792;2023-07-02T06:31:18;96936.47;;;22.30;62.88
57086;BME280;42964;42.910;23.792;2023-07-02T06:36:19;96919.34;;;22.65;62.83
57086;BME280;42964;42.910;23.792;2023-07-02T06:41:18;96929.38;;;22.74;60.66
57086;BME280;42964;42.910;23.792;2023-07-02T06:46:17;96929.25;;;22.90;63.98
57086;BME280;42964;42.910;23.792;2023-07-02T06:51:16;96819.59;;;22.67;62.16
57086;BME280;42964;42.910;23.792;2023-07-02T06:56:15;96875.81;;;23.12;62.42
57086;BME280;42964;42.910;23.792;2023-07-02T07:01:14;96930.22;;;23.43;64.16
57086;BME280;42964;42.910;23.792;2023-07-02T07:06:13;96934.97;;;23.38;61.30
57086;BME280;42964;42.910;23.792;2023-07-02T07:11:12;96938.25;;;23.69;62.76
57086;BME280;42964;42.910;23.792;2023-07-02T07:16:11;96940.00;;;24.08;60.66
57086;BME280;42964;42.910;23.792;2023-07-02T07:21:10;96938.31;;;24.71;58.20
57086;BME280;42964;42.910;23.792;2023-07-02T07:26:09;96932.41;;;24.92;51.45
57086;BME280;42964;42.910;23.792;2023-07-02T07:31:08;96923.38;;;24.57;50.84
57086;BME280;42964;42.910;23.792;2023-07-02T07:36:07;96939.59;;;24.40;51.10
57086;BME280;42964;42.910;23.792;2023-07-02T07:41:06;96931.78;;;24.38;51.44
57086;BME280;42964;42.910;23.792;2023-07-02T07:46:05;96929.63;;;24.43;50.93
57086;BME280;42964;42.910;23.792;2023-07-02T07:51:04;96936.16;;;24.63;51.78
57086;BME280;42964;42.910;23.792;2023-07-02T07:56:03;96933.97;;;25.07;53.89
57086;BME280;42964;42.910;23.792;2023-07-02T08:01:02;96934.13;;;25.29;53.11
57086;BME280;42964;42.910;23.792;2023-07-02T08:06:01;96932.28;;;25.30;53.39
57086;BME280;42964;42.910;23.792;2023-07-02T08:11:00;96942.53;;;25.71;55.01
57086;BME280;42964;42.910;23.792;2023-07-02T08:15:58;96941.63;;;25.95;52.90
57086;BME280;42964;42.910;23.792;2023-07-02T08:20:57;96870.78;;;25.71;53.36
57086;BME280;42964;42.910;23.792;2023-07-02T08:25:56;96927.81;;;26.48;53.12
57086;BME280;42964;42.910;23.792;2023-07-02T08:30:55;96928.91;;;26.68;51.23
57086;BME280;42964;42.910;23.792;2023-07-02T08:35:54;96931.56;;;26.90;49.83
57086;BME280;42964;42.910;23.792;2023-07-02T08:40:53;96936.94;;;27.34;49.90
57086;BME280;42964;42.910;23.792;2023-07-02T08:45:53;96941.41;;;27.66;48.20
57086;BME280;42964;42.910;23.792;2023-07-02T08:50:52;96944.72;;;27.90;48.98
57086;BME280;42964;42.910;23.792;2023-07-02T08:55:51;96933.38;;;27.98;47.99
57086;BME280;42964;42.910;23.792;2023-07-02T09:06:07;96936.25;;;28.06;47.95
57086;BME280;42964;42.910;23.792;2023-07-02T09:11:13;96924.13;;;28.13;48.54
57086;BME280;42964;42.910;23.792;2023-07-02T09:16:29;96923.50;;;28.31;47.60
57086;BME280;42964;42.910;23.792;2023-07-02T09:21:58;96916.03;;;28.55;47.08
57086;BME280;42964;42.910;23.792;2023-07-02T09:27:01;96924.34;;;28.83;47.03
57086;BME280;42964;42.910;23.792;2023-07-02T09:32:03;96922.56;;;29.13;45.76
57086;BME280;42964;42.910;23.792;2023-07-02T09:37:03;96917.97;;;29.34;45.47
57086;BME280;42964;42.910;23.792;2023-07-02T09:42:07;96920.94;;;29.41;44.92
57086;BME280;42964;42.910;23.792;2023-07-02T09:47:09;96916.25;;;29.23;43.16
57086;BME280;42964;42.910;23.792;2023-07-02T09:52:10;96913.38;;;28.86;42.84
57086;BME280;42964;42.910;23.792;2023-07-02T09:57:09;96915.72;;;28.79;43.04
57086;BME280;42964;42.910;23.792;2023-07-02T10:02:12;96909.31;;;28.61;42.71
57086;BME280;42964;42.910;23.792;2023-07-02T10:07:12;96898.16;;;28.46;45.65
57086;BME280;42964;42.910;23.792;2023-07-02T10:12:46;96904.09;;;28.59;45.38
57086;BME280;42964;42.910;23.792;2023-07-02T10:17:54;96903.81;;;28.53;44.58
57086;BME280;42964;42.910;23.792;2023-07-02T10:22:54;96904.97;;;28.60;45.51
57086;BME280;42964;42.910;23.792;2023-07-02T10:27:54;96858.56;;;28.51;45.81
57086;BME280;42964;42.910;23.792;2023-07-02T10:32:53;96892.53;;;28.80;44.18
57086;BME280;42964;42.910;23.792;2023-07-02T10:37:52;96886.38;;;28.89;44.78
57086;BME280;42964;42.910;23.792;2023-07-02T10:42:52;96879.19;;;28.90;43.23
57086;BME280;42964;42.910;23.792;2023-07-02T10:47:51;96867.44;;;29.12;42.91
57086;BME280;42964;42.910;23.792;2023-07-02T10:52:50;96853.84;;;29.34;42.66
57086;BME280;42964;42.910;23.792;2023-07-02T10:57:51;96857.34;;;29.64;42.32
57086;BME280;42964;42.910;23.792;2023-07-02T11:03:00;96867.47;;;29.89;40.45
57086;BME280;42964;42.910;23.792;2023-07-02T11:08:08;96865.09;;;29.86;38.88
57086;BME280;42964;42.910;23.792;2023-07-02T11:13:14;96862.25;;;29.78;37.94
57086;BME280;42964;42.910;23.792;2023-07-02T11:18:15;96864.53;;;29.44;39.56
57086;BME280;42964;42.910;23.792;2023-07-02T11:23:23;96859.34;;;29.33;39.04
57086;BME280;42964;42.910;23.792;2023-07-02T11:28:23;96847.75;;;29.22;38.43
57086;BME280;42964;42.910;23.792;2023-07-02T11:33:37;96854.22;;;28.91;38.83
57086;BME280;42964;42.910;23.792;2023-07-02T11:38:36;96844.38;;;29.11;39.57
57086;BME280;42964;42.910;23.792;2023-07-02T11:43:35;96835.69;;;29.47;39.57
57086;BME280;42964;42.910;23.792;2023-07-02T11:48:34;96836.63;;;29.85;40.47
57086;BME280;42964;42.910;23.792;2023-07-02T11:53:33;96838.06;;;30.27;38.44
57086;BME280;42964;42.910;23.792;2023-07-02T11:58:32;96845.00;;;30.20;37.48
57086;BME280;42964;42.910;23.792;2023-07-02T12:03:31;96846.03;;;29.99;37.30
57086;BME280;42964;42.910;23.792;2023-07-02T12:08:30;96856.34;;;29.94;37.09
57086;BME280;42964;42.910;23.792;2023-07-02T12:13:29;96846.53;;;30.22;37.47
57086;BME280;42964;42.910;23.792;2023-07-02T12:18:28;96849.94;;;30.15;37.58
57086;BME280;42964;42.910;23.792;2023-07-02T12:23:27;96838.19;;;29.98;37.71
57086;BME280;42964;42.910;23.792;2023-07-02T12:28:26;96857.00;;;30.06;40.92
57086;BME280;42964;42.910;23.792;2023-07-02T12:33:25;96839.47;;;29.64;39.29
57086;BME280;42964;42.910;23.792;2023-07-02T12:38:23;96860.88;;;29.55;42.48
57086;BME280;42964;42.910;23.792;2023-07-02T12:43:23;96869.78;;;27.93;45.21
57086;BME280;42964;42.910;23.792;2023-07-02T12:48:22;96874.53;;;27.36;47.23
57086;BME280;42964;42.910;23.792;2023-07-02T12:53:21;96882.69;;;26.69;48.45
57086;BME280;42964;42.910;23.792;2023-07-02T12:58:20;96886.97;;;26.38;49.67
57086;BME280;42964;42.910;23.792;2023-07-02T13:03:19;96902.13;;;26.13;51.17
57086;BME280;42964;42.910;23.792;2023-07-02T13:08:18;96913.13;;;26.08;52.52
57086;BME280;42964;42.910;23.792;2023-07-02T13:13:17;96902.06;;;26.60;51.63
57086;BME280;42964;42.910;23.792;2023-07-02T13:18:16;96901.56;;;26.77;49.90
57086;BME280;42964;42.910;23.792;2023-07-02T13:23:15;96902.53;;;26.87;49.81
57086;BME280;42964;42.910;23.792;2023-07-02T13:28:14;96891.69;;;27.55;47.57
57086;BME280;42964;42.910;23.792;2023-07-02T13:33:13;96891.41;;;28.42;45.26
57086;BME280;42964;42.910;23.792;2023-07-02T13:38:12;96868.88;;;29.16;43.31
57086;BME280;42964;42.910;23.792;2023-07-02T13:43:11;96881.84;;;29.88;42.71
57086;BME280;42964;42.910;23.792;2023-07-02T13:48:10;96868.31;;;30.47;41.01
57086;BME280;42964;42.910;23.792;2023-07-02T13:53:09;96871.59;;;30.96;39.23
57086;BME280;42964;42.910;23.792;2023-07-02T13:58:08;96867.94;;;30.87;38.69
57086;BME280;42964;42.910;23.792;2023-07-02T14:03:07;96858.03;;;30.42;39.89
57086;BME280;42964;42.910;23.792;2023-07-02T14:08:08;96859.03;;;29.75;40.30
57086;BME280;42964;42.910;23.792;2023-07-02T14:13:08;96875.19;;;28.64;42.10
57086;BME280;42964;42.910;23.792;2023-07-02T14:18:06;96893.59;;;27.64;45.87
57086;BME280;42964;42.910;23.792;2023-07-02T14:23:05;96902.25;;;27.02;47.39
57086;BME280;42964;42.910;23.792;2023-07-02T14:28:05;96904.69;;;26.82;48.58
57086;BME280;42964;42.910;23.792;2023-07-02T14:33:05;96880.78;;;26.48;48.76
57086;BME280;42964;42.910;23.792;2023-07-02T14:38:04;96919.47;;;26.30;49.73
57086;BME280;42964;42.910;23.792;2023-07-02T14:43:03;96912.84;;;25.89;50.94
57086;BME280;42964;42.910;23.792;2023-07-02T14:48:04;96923.69;;;25.74;51.77
57086;BME280;42964;42.910;23.792;2023-07-02T14:53:03;96927.03;;;25.65;52.63
57086;BME280;42964;42.910;23.792;2023-07-02T14:58:02;96934.81;;;25.80;52.43
57086;BME280;42964;42.910;23.792;2023-07-02T15:03:01;96929.50;;;25.80;51.96
57086;BME280;42964;42.910;23.792;2023-07-02T15:08:00;96920.00;;;25.64;53.43
57086;BME280;42964;42.910;23.792;2023-07-02T15:12:59;96944.41;;;25.93;54.15
57086;BME280;42964;42.910;23.792;2023-07-02T15:17:58;96947.88;;;25.83;53.38
57086;BME280;42964;42.910;23.792;2023-07-02T15:22:57;96941.75;;;25.58;53.52
57086;BME280;42964;42.910;23.792;2023-07-02T15:27:56;96937.63;;;25.54;53.60
57086;BME280;42964;42.910;23.792;2023-07-02T15:32:55;96920.56;;;25.81;52.86
57086;BME280;42964;42.910;23.792;2023-07-02T15:37:54;96914.88;;;26.21;52.34
57086;BME280;42964;42.910;23.792;2023-07-02T15:42:53;96922.13;;;26.64;50.45
57086;BME280;42964;42.910;23.792;2023-07-02T15:47:52;96913.16;;;27.10;49.50
57086;BME280;42964;42.910;23.792;2023-07-02T15:52:51;96918.25;;;27.45;47.91
57086;BME280;42964;42.910;23.792;2023-07-02T15:57:50;96916.97;;;27.60;47.69
57086;BME280;42964;42.910;23.792;2023-07-02T16:02:49;96909.19;;;27.36;48.29
57086;BME280;42964;42.910;23.792;2023-07-02T16:07:48;96917.22;;;27.25;47.85
57086;BME280;42964;42.910;23.792;2023-07-02T16:12:47;96934.47;;;26.87;48.43
57086;BME280;42964;42.910;23.792;2023-07-02T16:17:47;96944.63;;;26.48;49.13
57086;BME280;42964;42.910;23.792;2023-07-02T16:22:46;96956.69;;;26.30;49.50
57086;BME280;42964;42.910;23.792;2023-07-02T16:27:45;96961.41;;;25.80;51.01
57086;BME280;42964;42.910;23.792;2023-07-02T16:32:44;96972.31;;;25.64;51.65
57086;BME280;42964;42.910;23.792;2023-07-02T16:37:43;96971.38;;;25.52;52.31
57086;BME280;42964;42.910;23.792;2023-07-02T16:42:42;96977.53;;;25.28;53.79
57086;BME280;42964;42.910;23.792;2023-07-02T16:47:41;96982.28;;;25.36;53.60
57086;BME280;42964;42.910;23.792;2023-07-02T16:52:40;96988.41;;;25.62;53.40
57086;BME280;42964;42.910;23.792;2023-07-02T16:57:39;97006.13;;;25.86;53.55
57086;BME280;42964;42.910;23.792;2023-07-02T17:02:38;97012.53;;;25.83;55.02
57086;BME280;42964;42.910;23.792;2023-07-02T17:07:37;96999.47;;;25.56;60.77
57086;BME280;42964;42.910;23.792;2023-07-02T17:12:35;97011.09;;;25.66;63.57
57086;BME280;42964;42.910;23.792;2023-07-02T17:17:34;97009.56;;;25.51;66.17
57086;BME280;42964;42.910;23.792;2023-07-02T17:22:33;97021.94;;;25.39;68.14
57086;BME280;42964;42.910;23.792;2023-07-02T17:27:32;97022.25;;;25.35;67.21
57086;BME280;42964;42.910;23.792;2023-07-02T17:32:31;97014.88;;;25.14;68.58
57086;BME280;42964;42.910;23.792;2023-07-02T17:37:30;97024.47;;;25.04;69.09
57086;BME280;42964;42.910;23.792;2023-07-02T17:42:29;97028.81;;;24.79;69.69
57086;BME280;42964;42.910;23.792;2023-07-02T17:47:28;97024.06;;;24.46;70.92
57086;BME280;42964;42.910;23.792;2023-07-02T17:52:27;97040.25;;;24.28;72.32
57086;BME280;42964;42.910;23.792;2023-07-02T17:57:26;97040.63;;;24.10;72.73
57086;BME280;42964;42.910;23.792;2023-07-02T18:02:26;97048.94;;;23.91;73.55
57086;BME280;42964;42.910;23.792;2023-07-02T18:07:25;97031.78;;;23.56;74.32
57086;BME280;42964;42.910;23.792;2023-07-02T18:12:24;97039.16;;;23.37;74.77
57086;BME280;42964;42.910;23.792;2023-07-02T18:17:24;97061.34;;;23.21;75.76
57086;BME280;42964;42.910;23.792;2023-07-02T18:22:23;97068.44;;;22.92;76.93
57086;BME280;42964;42.910;23.792;2023-07-02T18:27:22;97082.28;;;22.67;78.53
57086;BME280;42964;42.910;23.792;2023-07-02T18:32:21;97096.22;;;22.41;79.87
57086;BME280;42964;42.910;23.792;2023-07-02T18:37:21;97103.25;;;22.26;80.32
57086;BME280;42964;42.910;23.792;2023-07-02T18:42:22;97107.66;;;22.11;79.86
57086;BME280;42964;42.910;23.792;2023-07-02T18:47:21;97100.34;;;22.00;79.80
57086;BME280;42964;42.910;23.792;2023-07-02T18:52:20;97110.38;;;21.93;81.62
57086;BME280;42964;42.910;23.792;2023-07-02T18:57:19;97119.78;;;21.83;81.89
57086;BME280;42964;42.910;23.792;2023-07-02T19:02:18;97132.78;;;21.70;82.26
57086;BME280;42964;42.910;23.792;2023-07-02T19:07:18;97141.31;;;21.60;82.99
57086;BME280;42964;42.910;23.792;2023-07-02T19:12:17;97116.44;;;21.32;83.25
57086;BME280;42964;42.910;23.792;2023-07-02T19:17:17;97145.22;;;21.37;83.62
57086;BME280;42964;42.910;23.792;2023-07-02T19:22:17;97150.16;;;21.27;84.00
57086;BME280;42964;42.910;23.792;2023-07-02T19:27:17;97158.00;;;21.11;84.36
57086;BME280;42964;42.910;23.792;2023-07-02T19:32:17;97162.03;;;21.01;84.47
57086;BME280;42964;42.910;23.792;2023-07-02T19:37:16;97160.75;;;20.92;84.90
57086;BME280;42964;42.910;23.792;2023-07-02T19:42:15;97171.78;;;20.83;85.17
57086;BME280;42964;42.910;23.792;2023-07-02T19:47:14;97167.13;;;20.70;85.14
57086;BME280;42964;42.910;23.792;2023-07-02T19:52:14;97161.22;;;20.65;85.44
57086;BME280;42964;42.910;23.792;2023-07-02T19:57:15;97166.03;;;20.57;85.82
57086;BME280;42964;42.910;23.792;2023-07-02T20:02:16;97178.13;;;20.44;85.34
57086;BME280;42964;42.910;23.792;2023-07-02T20:07:20;97159.97;;;20.38;85.08
57086;BME280;42964;42.910;23.792;2023-07-02T20:12:19;97114.38;;;20.01;85.27
57086;BME280;42964;42.910;23.792;2023-07-02T20:17:18;97153.09;;;20.16;85.93
57086;BME280;42964;42.910;23.792;2023-07-02T20:22:18;97170.78;;;20.14;87.67
57086;BME280;42964;42.910;23.792;2023-07-02T20:27:18;97170.25;;;20.07;88.25
57086;BME280;42964;42.910;23.792;2023-07-02T20:32:19;97174.78;;;20.04;88.89
57086;BME280;42964;42.910;23.792;2023-07-02T20:37:19;97181.44;;;19.94;89.57
57086;BME280;42964;42.910;23.792;2023-07-02T20:42:19;97188.03;;;19.83;90.45
57086;BME280;42964;42.910;23.792;2023-07-02T20:47:20;97178.72;;;19.76;90.98
57086;BME280;42964;42.910;23.792;2023-07-02T20:52:22;97171.94;;;19.72;91.25
57086;BME280;42964;42.910;23.792;2023-07-02T20:57:21;97190.63;;;19.66;91.58
57086;BME280;42964;42.910;23.792;2023-07-02T21:02:20;97183.00;;;19.60;91.37
57086;BME280;42964;42.910;23.792;2023-07-02T21:07:19;97190.53;;;19.49;91.67
57086;BME280;42964;42.910;23.792;2023-07-02T21:12:18;97194.50;;;19.38;91.39
57086;BME280;42964;42.910;23.792;2023-07-02T21:17:17;97205.31;;;19.32;91.31
57086;BME280;42964;42.910;23.792;2023-07-02T21:22:17;97199.66;;;19.21;91.30
57086;BME280;42964;42.910;23.792;2023-07-02T21:27:16;97168.94;;;19.02;92.78
57086;BME280;42964;42.910;23.792;2023-07-02T21:32:15;97201.78;;;19.13;93.08
57086;BME280;42964;42.910;23.792;2023-07-02T21:37:14;97207.44;;;19.03;94.00
57086;BME280;42964;42.910;23.792;2023-07-02T21:42:13;97206.53;;;19.05;93.87
57086;BME280;42964;42.910;23.792;2023-07-02T21:47:12;97197.31;;;18.94;94.68
57086;BME280;42964;42.910;23.792;2023-07-02T21:52:11;97198.41;;;18.90;95.16
57086;BME280;42964;42.910;23.792;2023-07-02T21:57:10;97216.19;;;18.84;95.87
57086;BME280;42964;42.910;23.792;2023-07-02T22:02:09;97237.16;;;18.85;95.73
57086;BME280;42964;42.910;23.792;2023-07-02T22:07:08;97219.72;;;18.82;95.81
57086;BME280;42964;42.910;23.792;2023-07-02T22:12:08;97176.19;;;18.55;95.61
57086;BME280;42964;42.910;23.792;2023-07-02T22:17:07;97214.81;;;18.75;95.61
57086;BME280;42964;42.910;23.792;2023-07-02T22:22:06;97223.69;;;18.72;95.38
57086;BME280;42964;42.910;23.792;2023-07-02T22:27:07;97226.25;;;18.74;94.98
57086;BME280;42964;42.910;23.792;2023-07-02T22:32:07;97227.03;;;18.76;94.57
57086;BME280;42964;42.910;23.792;2023-07-02T22:37:06;97228.88;;;18.74;94.59
57086;BME280;42964;42.910;23.792;2023-07-02T22:42:05;97215.75;;;18.74;94.49
57086;BME280;42964;42.910;23.792;2023-07-02T22:47:04;97220.00;;;18.76;94.38
57086;BME280;42964;42.910;23.792;2023-07-02T22:52:03;97219.75;;;18.60;94.76
57086;BME280;42964;42.910;23.792;2023-07-02T22:57:02;97050.66;;;17.35;96.36
57086;BME280;42964;42.910;23.792;2023-07-02T23:02:02;97233.00;;;18.37;96.33
57086;BME280;42964;42.910;23.792;2023-07-02T23:07:01;97243.69;;;18.32;95.81
57086;BME280;42964;42.910;23.792;2023-07-02T23:12:00;97232.53;;;18.27;95.68
57086;BME280;42964;42.910;23.792;2023-07-02T23:16:59;97233.69;;;18.20;95.65
57086;BME280;42964;42.910;23.792;2023-07-02T23:21:57;97232.03;;;18.17;95.70
57086;BME280;42964;42.910;23.792;2023-07-02T23:26:57;97231.34;;;18.12;96.10
57086;BME280;42964;42.910;23.792;2023-07-02T23:31:55;97233.25;;;18.09;96.03
57086;BME280;42964;42.910;23.792;2023-07-02T23:36:54;97227.31;;;18.04;96.57
57086;BME280;42964;42.910;23.792;2023-07-02T23:41:53;97225.13;;;17.93;97.08
57086;BME280;42964;42.910;23.792;2023-07-02T23:46:52;97224.31;;;17.91;96.99
57086;BME280;42964;42.910;23.792;2023-07-02T23:51:51;97219.19;;;17.88;97.52
57086;BME280;42964;42.910;23.792;2023-07-02T23:56:50;97227.06;;;17.88;97.73
